KF6ILA Weather Reports


Display with metric or nautical units.
time (UTC)temp
F
wind
direction
speed
MPH
gust
MPH
rain 1hr
in
rain 24hr
in
rain mn
in
humidity
%
barometer
mb
20240301064740 40 269 16.0 25.0 0.00 0.00 0.00 97 1016.9
20240301064243 40 273 17.0 25.0 0.00 0.00 0.00 97 1017.0
20240301063747 40 274 18.0 25.0 0.00 0.00 0.00 97 1016.8
20240301063249 41 274 19.0 25.0 0.00 0.00 0.00 98 1016.8
20240301062752 41 258 16.0 25.0 0.00 0.00 0.00 98 1016.9
20240301062255 41 273 15.0 25.0 0.00 0.00 0.00 98 1016.9
20240301061758 41 276 18.0 25.0 0.00 0.00 0.00 98 1016.9
20240301061301 41 272 17.0 24.0 0.00 0.00 0.00 98 1016.8
20240301060804 41 275 16.0 24.0 0.00 0.00 0.00 97 1016.9
20240301060307 41 268 14.0 24.0 0.00 0.00 0.00 97 1016.9
20240301055810 41 263 16.0 24.0 0.00 0.00 0.00 97 1016.7
20240301055314 41 257 17.0 24.0 0.00 0.00 0.00 97 1016.9
20240301054816 41 260 17.0 25.0 0.00 0.00 0.00 97 1017.0
20240301054319 41 270 17.0 25.0 0.00 0.00 0.00 98 1016.9
20240301053822 41 269 17.0 23.0 0.00 0.00 0.00 97 1016.7
20240301053325 41 275 18.0 25.0 0.00 0.00 0.00 97 1016.6
20240301052828 41 268 14.0 25.0 0.00 0.00 0.00 97 1016.8
20240301052331 41 261 15.0 24.0 0.00 0.00 0.00 97 1016.8
20240301051834 41 274 18.0 24.0 0.00 0.00 0.00 97 1016.8
20240301051337 41 271 16.0 23.0 0.00 0.00 0.00 97 1016.8
20240301050840 41 275 16.0 24.0 0.00 0.00 0.00 96 1016.8
20240301050343 41 281 18.0 24.0 0.00 0.00 0.00 96 1016.7
20240301045846 41 273 15.0 27.0 0.00 0.00 0.00 96 1016.8
20240301045434 42 266 18.0 27.0 0.00 0.00 0.00 96 1016.8
20240301045349 42 266 18.0 27.0 0.00 0.00 0.00 96 1016.8
20240301044852 42 271 14.0 25.0 0.00 0.00 0.00 96 1016.9
20240301044355 42 260 16.0 26.0 0.00 0.00 0.00 96 1016.8
20240301043858 42 266 16.0 26.0 0.00 0.00 0.00 96 1016.7
20240301043401 42 259 14.0 24.0 0.00 0.00 0.00 96 1016.7
20240301042904 42 264 15.0 24.0 0.00 0.00 0.00 96 1016.7
20240301042407 42 267 18.0 24.0 0.00 0.00 0.00 96 1016.7
20240301041910 42 265 17.0 24.0 0.00 0.00 0.00 96 1016.7
20240301041414 42 264 15.0 24.0 0.00 0.00 0.00 96 1016.9
20240301040916 42 272 15.0 25.0 0.00 0.00 0.00 96 1016.5
20240301040419 42 266 14.0 25.0 0.00 0.00 0.00 96 1016.6
20240301035922 42 265 16.0 23.0 0.00 0.00 0.00 96 1016.4
20240301035425 42 279 16.0 22.0 0.00 0.00 0.00 96 1016.4
20240301034928 42 269 14.0 21.0 0.00 0.00 0.00 96 1016.5
20240301034431 42 267 15.0 22.0 0.00 0.00 0.00 96 1016.6
20240301033934 43 258 15.0 22.0 0.00 0.00 0.00 96 1016.5
20240301033437 43 270 14.0 27.0 0.00 0.00 0.00 96 1016.8
20240301032940 43 272 14.0 27.0 0.00 0.00 0.00 96 1016.6
20240301032443 43 268 17.0 27.0 0.00 0.00 0.00 96 1016.7
20240301031947 43 264 15.0 25.0 0.00 0.00 0.00 96 1016.6
20240301030952 43 290 25.0 25.0 0.00 0.00 0.00 96 1016.7
20240301030455 43 273 16.0 24.0 0.00 0.00 0.00 96 1016.5
20240301025958 43 267 14.0 26.0 0.00 0.00 0.00 96 1016.5
20240301025501 43 285 18.0 26.0 0.00 0.00 0.00 96 1016.3
20240301025004 43 275 19.0 26.0 0.00 0.00 0.00 95 1016.4
20240301024507 43 268 15.0 26.0 0.00 0.00 0.00 95 1016.2
20240301024010 43 281 17.0 26.0 0.00 0.00 0.00 95 1016.2
20240301023513 43 273 18.0 22.0 0.00 0.00 0.00 95 1016.2
20240301023016 44 279 16.0 23.0 0.00 0.00 0.00 95 1016.2
20240301022520 44 261 14.0 24.0 0.00 0.00 0.00 94 1016.3
20240301022022 44 280 17.0 24.0 0.00 0.00 0.00 95 1016.3
20240301021525 44 281 16.0 22.0 0.00 0.00 0.00 95 1016.2
20240301021028 44 266 16.0 25.0 0.00 0.00 0.00 94 1016.1
20240301020531 44 257 15.0 25.0 0.00 0.00 0.00 94 1016.0
20240301020034 44 276 17.0 25.0 0.00 0.00 0.00 94 1016.1
20240301015537 44 278 18.0 24.0 0.00 0.00 0.00 94 1016.0
20240301015040 44 274 17.0 26.0 0.00 0.00 0.00 94 1016.0
20240301014543 44 275 18.0 26.0 0.00 0.00 0.00 94 1015.9
20240301014046 45 274 19.0 25.0 0.00 0.00 0.00 94 1016.0
20240301013549 45 270 17.0 25.0 0.00 0.00 0.00 94 1016.1
20240301013053 45 278 17.0 25.0 0.00 0.00 0.00 94 1016.0
20240301012706 45 278 18.0 25.0 0.00 0.00 0.00 94 1016.2
20240301012555 45 278 18.0 25.0 0.00 0.00 0.00 94 1016.2
20240301012058 45 278 18.0 28.0 0.00 0.00 0.00 93 1016.1
20240301011601 45 276 18.0 28.0 0.00 0.00 0.00 92 1016.8
20240301011104 45 276 19.0 25.0 0.00 0.00 0.00 90 1016.9
20240301010608 45 277 18.0 25.0 0.00 0.00 0.00 89 1017.0
20240301010110 46 262 17.0 25.0 0.00 0.00 0.00 90 1017.0
20240301005614 46 266 19.0 27.0 0.00 0.00 0.00 90 1017.0
20240301005116 46 266 18.0 27.0 0.00 0.00 0.00 89 1017.1
20240301004619 46 268 20.0 27.0 0.00 0.00 0.00 88 1017.2
20240301004122 46 276 20.0 27.0 0.00 0.00 0.00 89 1017.1
20240301003625 46 269 19.0 27.0 0.00 0.00 0.00 88 1017.2
20240301003128 47 273 20.0 29.0 0.00 0.00 0.00 87 1017.0
20240301002631 47 270 22.0 29.0 0.00 0.00 0.00 84 1016.7
20240301002134 48 276 20.0 28.0 0.00 0.00 0.00 82 1016.7
20240301001637 48 281 22.0 28.0 0.00 0.00 0.00 84 1016.6
20240301001140 47 265 16.0 27.0 0.00 0.00 0.00 85 1016.7
20240301000643 48 265 18.0 28.0 0.00 0.00 0.00 83 1016.7
20240301000146 49 265 17.0 28.0 0.00 0.00 0.00 82 1016.7
20240229235650 49 263 18.0 28.0 0.00 0.00 0.00 82 1016.7
20240229235153 49 267 19.0 28.0 0.00 0.00 0.00 81 1016.8
20240229234655 48 265 20.0 27.0 0.00 0.00 0.00 82 1016.9
20240229234158 48 286 17.0 24.0 0.00 0.00 0.00 86 1017.0
20240229233701 47 288 15.0 27.0 0.00 0.00 0.00 86 1016.8
20240229233204 47 286 14.0 27.0 0.00 0.00 0.00 86 1016.7
20240229232707 48 297 19.0 25.0 0.00 0.00 0.00 85 1016.7
20240229232211 48 286 16.0 25.0 0.00 0.00 0.00 84 1016.9
20240229231713 49 282 17.0 27.0 0.00 0.00 0.00 83 1017.1
20240229231217 49 293 17.0 27.0 0.00 0.00 0.00 84 1017.0
20240229230719 49 295 16.0 30.0 0.00 0.00 0.00 84 1017.0
20240229230223 48 275 19.0 30.0 0.00 0.00 0.00 82 1017.1
20240229225725 48 279 17.0 28.0 0.00 0.00 0.00 83 1017.3
20240229225228 48 290 20.0 28.0 0.00 0.00 0.00 82 1017.2
20240229224731 49 269 19.0 28.0 0.00 0.00 0.00 81 1017.2
20240229224234 49 271 23.0 28.0 0.00 0.00 0.00 78 1017.2
20240229223737 50 269 19.0 30.0 0.00 0.00 0.00 78 1017.0
20240229223240 50 278 22.0 30.0 0.00 0.00 0.00 77 1017.0
20240229222743 51 260 16.0 28.0 0.00 0.00 0.00 79 1017.1
20240229222246 51 272 19.0 28.0 0.00 0.00 0.00 79 1016.9
20240229221750 50 263 15.0 27.0 0.00 0.00 0.00 81 1017.0
20240229221253 50 268 22.0 27.0 0.00 0.00 0.00 79 1017.0
20240229220756 50 267 18.0 27.0 0.00 0.00 0.00 81 1016.9
20240229220259 50 283 16.0 30.0 0.00 0.00 0.00 81 1017.3
20240229215802 50 268 17.0 30.0 0.00 0.00 0.00 80 1017.2
20240229215306 50 272 22.0 30.0 0.00 0.00 0.00 81 1017.1
20240229214808 50 275 19.0 29.0 0.00 0.00 0.00 81 1016.9
20240229214311 50 272 20.0 29.0 0.00 0.00 0.00 81 1017.0
20240229213922 50 273 20.0 28.0 0.00 0.00 0.00 81 1017.3
20240229213814 50 273 20.0 28.0 0.00 0.00 0.00 81 1017.3
20240229213317 50 272 14.0 27.0 0.00 0.00 0.00 84 1017.2
20240229212820 50 270 19.0 28.0 0.00 0.00 0.00 83 1017.1
20240229212323 50 275 21.0 28.0 0.00 0.00 0.00 83 1017.2
20240229211826 49 262 15.0 26.0 0.00 0.00 0.00 84 1017.2
20240229211329 49 275 14.0 27.0 0.00 0.00 0.00 86 1017.2
20240229210832 49 266 20.0 27.0 0.00 0.00 0.00 85 1017.3
20240229210334 49 279 18.0 27.0 0.00 0.00 0.00 85 1017.4
20240229205937 49 277 21.0 27.0 0.00 0.00 0.00 83 1017.2
20240229205838 49 277 21.0 27.0 0.00 0.00 0.00 83 1017.2
20240229205454 50 267 20.0 27.0 0.00 0.00 0.00 81 1017.3
20240229205341 50 267 20.0 27.0 0.00 0.00 0.00 81 1017.3
20240229204844 50 265 14.0 28.0 0.00 0.00 0.00 84 1018.1
20240229204347 49 271 19.0 28.0 0.00 0.00 0.00 85 1018.2
20240229203850 49 259 19.0 24.0 0.00 0.00 0.00 85 1018.3
20240229203353 48 271 15.0 23.0 0.00 0.00 0.00 87 1018.3
20240229203050 48 277 21.0 27.0 0.00 0.00 0.00 84 1018.4
20240229202856 48 277 21.0 27.0 0.00 0.00 0.00 84 1018.4
20240229202359 49 275 19.0 26.0 0.00 0.00 0.00 83 1018.4
20240229201902 49 270 19.0 25.0 0.00 0.00 0.00 83 1018.6
20240229201405 49 259 14.0 24.0 0.00 0.00 0.00 84 1018.5
20240229200908 49 271 15.0 24.0 0.00 0.00 0.00 84 1018.4
20240229200411 50 260 18.0 28.0 0.00 0.00 0.00 83 1018.6
20240229195914 50 271 17.0 25.0 0.00 0.00 0.00 85 1018.5
20240229195547 50 280 15.0 24.0 0.00 0.00 0.00 85 1018.3
20240229195417 50 280 15.0 24.0 0.00 0.00 0.00 85 1018.3
20240229194920 50 286 15.0 24.0 0.00 0.00 0.00 84 1018.3
20240229194422 50 273 14.0 22.0 0.00 0.00 0.00 85 1018.5
20240229193926 50 279 15.0 22.0 0.00 0.00 0.00 85 1018.7
20240229193428 50 295 15.0 22.0 0.00 0.00 0.00 85 1018.5
20240229192931 50 282 15.0 23.0 0.00 0.00 0.00 86 1018.8
20240229192435 49 269 15.0 23.0 0.00 0.00 0.00 86 1018.8
20240229191937 49 287 15.0 24.0 0.00 0.00 0.00 86 1018.7
20240229191440 49 269 16.0 24.0 0.00 0.00 0.00 85 1018.4
20240229190943 49 273 13.0 24.0 0.00 0.00 0.00 87 1018.5
20240229190446 49 275 14.0 24.0 0.00 0.00 0.00 87 1018.6
20240229185950 48 277 13.0 21.0 0.00 0.00 0.00 88 1018.8
20240229185452 48 268 17.0 25.0 0.00 0.00 0.00 88 1018.9
20240229184955 47 274 19.0 25.0 0.00 0.00 0.00 89 1018.7
20240229184458 47 279 17.0 26.0 0.00 0.00 0.00 90 1018.8
20240229184002 47 270 16.0 27.0 0.00 0.00 0.00 91 1018.8
20240229183504 46 281 16.0 27.0 0.00 0.00 0.00 91 1018.7
20240229183007 46 270 20.0 25.0 0.00 0.00 0.00 91 1018.8
20240229182510 46 279 17.0 25.0 0.00 0.00 0.00 92 1018.9
20240229182013 46 279 17.0 26.0 0.00 0.00 0.00 91 1018.7
20240229181517 46 269 17.0 26.0 0.00 0.00 0.00 92 1018.9
20240229181020 46 262 17.0 24.0 0.00 0.00 0.00 92 1018.8
20240229180522 45 266 16.0 24.0 0.00 0.00 0.00 94 1018.4
20240229180026 45 264 14.0 24.0 0.00 0.00 0.00 94 1018.4
20240229175528 44 262 19.0 24.0 0.00 0.00 0.00 93 1018.4
20240229175121 44 262 19.0 24.0 0.00 0.00 0.00 93 1018.3
20240229175032 44 262 19.0 24.0 0.00 0.00 0.00 93 1018.3
20240229174534 45 262 16.0 22.0 0.00 0.00 0.00 94 1018.3
20240229174037 45 268 14.0 22.0 0.00 0.00 0.00 96 1018.3
20240229173540 44 247 13.0 21.0 0.00 0.00 0.00 98 1018.4
20240229173043 43 268 15.0 22.0 0.00 0.00 0.00 98 1018.4
20240229172546 43 276 17.0 22.0 0.00 0.00 0.00 98 1018.2
20240229172049 43 277 15.0 22.0 0.00 0.00 0.00 98 1018.0
20240229171552 43 276 17.0 22.0 0.00 0.00 0.00 99 1018.1
20240229171055 43 265 15.0 22.0 0.00 0.00 0.00 99 1018.1
20240229170558 43 278 15.0 21.0 0.00 0.00 0.00 99 1018.1
20240229170101 43 274 16.0 21.0 0.00 0.00 0.00 99 1018.1
20240229165604 43 275 14.0 20.0 0.00 0.00 0.00 99 1018.0
20240229165107 42 274 13.0 21.0 0.00 0.00 0.00 99 1017.8
20240229164610 42 278 15.0 22.0 0.00 0.00 0.00 98 1018.0
20240229164113 41 274 15.0 22.0 0.00 0.00 0.00 98 1018.0
20240229163616 42 270 17.0 21.0 0.00 0.00 0.00 98 1018.0
20240229163119 42 277 13.0 19.0 0.00 0.00 0.00 99 1017.9
20240229162623 42 272 13.0 21.0 0.00 0.00 0.00 98 1018.0
20240229162125 42 281 15.0 21.0 0.00 0.00 0.00 98 1017.9
20240229161628 42 284 14.0 21.0 0.00 0.00 0.00 98 1017.7
20240229161131 41 282 15.0 21.0 0.00 0.00 0.00 98 1017.8
20240229160634 41 272 13.0 19.0 0.00 0.00 0.00 98 1017.7
20240229160137 41 280 13.0 22.0 0.00 0.00 0.00 98 1017.6
20240229155640 41 273 15.0 22.0 0.00 0.00 0.00 99 1017.4
20240229155143 41 268 14.0 22.0 0.00 0.00 0.00 99 1017.5
20240229154647 40 276 14.0 21.0 0.00 0.00 0.00 99 1017.3
20240229154149 40 275 13.0 19.0 0.00 0.00 0.00 99 1017.2
20240229153653 40 277 13.0 19.0 0.00 0.00 0.00 99 1017.1
20240229153155 40 277 13.0 21.0 0.00 0.00 0.00 98 1017.0
20240229152658 40 282 14.0 21.0 0.00 0.00 0.00 98 1016.9
20240229152201 40 280 14.0 21.0 0.00 0.00 0.00 98 1016.8
20240229151704 40 280 14.0 22.0 0.00 0.00 0.00 98 1016.9
20240229151208 40 274 15.0 22.0 0.00 0.00 0.00 98 1016.9
20240229150711 40 272 13.0 22.0 0.00 0.00 0.00 98 1016.9
20240229150214 40 278 15.0 22.0 0.00 0.00 0.00 98 1016.9
20240229145717 39 273 15.0 23.0 0.00 0.00 0.00 98 1016.8
20240229145219 39 272 18.0 24.0 0.00 0.00 0.00 97 1016.8
20240229144722 39 272 17.0 24.0 0.00 0.00 0.00 97 1016.6
20240229144225 39 275 18.0 24.0 0.00 0.00 0.00 97 1016.8
20240229143728 39 272 16.0 23.0 0.00 0.00 0.00 95 1016.6
20240229143231 39 271 16.0 22.0 0.00 0.00 0.00 94 1016.6
20240229142734 39 273 15.0 22.0 0.00 0.00 0.00 90 1016.5
20240229142237 40 265 17.0 21.0 0.00 0.00 0.00 87 1016.4
20240229141740 41 255 15.0 20.0 0.00 0.00 0.00 85 1016.1
20240229141243 42 256 13.0 21.0 0.00 0.00 0.00 83 1016.1
20240229140746 42 257 15.0 21.0 0.00 0.00 0.00 82 1016.2
20240229140322 43 256 16.0 21.0 0.00 0.00 0.00 82 1016.2
20240229140249 43 256 16.0 21.0 0.00 0.00 0.00 82 1016.2
20240229135752 43 252 15.0 20.0 0.00 0.00 0.00 81 1016.2
20240229135255 43 251 16.0 21.0 0.00 0.00 0.00 81 1016.2
20240229134758 42 253 16.0 21.0 0.00 0.00 0.00 82 1016.1
20240229134302 42 254 15.0 22.0 0.00 0.00 0.00 82 1016.0
20240229133804 42 254 14.0 24.0 0.00 0.00 0.00 82 1016.0
20240229133307 43 252 16.0 24.0 0.00 0.00 0.00 83 1015.9
20240229132810 43 258 17.0 24.0 0.00 0.00 0.00 83 1015.7
20240229132313 42 258 15.0 22.0 0.00 0.00 0.00 84 1015.7
20240229131816 42 263 17.0 22.0 0.00 0.00 0.00 85 1015.6
20240229131319 42 263 15.0 22.0 0.00 0.00 0.00 85 1015.7
20240229130822 43 270 14.0 22.0 0.00 0.00 0.00 83 1015.8
20240229130325 43 264 17.0 22.0 0.00 0.00 0.00 84 1015.5
20240229125829 44 271 13.0 21.0 0.00 0.00 0.00 83 1015.5
20240229125331 44 266 14.0 24.0 0.00 0.00 0.00 82 1015.5
20240229124835 45 261 18.0 24.0 0.00 0.00 0.00 82 1015.5
20240229124337 45 270 17.0 24.0 0.00 0.00 0.00 81 1015.3
20240229123841 45 256 17.0 24.0 0.00 0.00 0.00 80 1015.4
20240229123344 45 262 16.0 24.0 0.00 0.00 0.00 80 1015.5
20240229122847 45 266 16.0 21.0 0.00 0.00 0.00 79 1015.4
20240229122350 45 264 13.0 21.0 0.00 0.00 0.00 77 1015.4
20240229121953 45 261 14.0 21.0 0.00 0.00 0.00 79 1015.4
20240229121853 45 261 14.0 21.0 0.00 0.00 0.00 79 1015.4
20240229121356 45 260 13.0 21.0 0.00 0.00 0.00 79 1015.5
20240229120859 45 256 12.0 19.0 0.00 0.00 0.00 79 1015.3
20240229120404 45 261 14.0 19.0 0.00 0.00 0.00 79 1015.4
20240229115905 45 258 12.0 18.0 0.00 0.00 0.00 79 1015.4
20240229115408 45 261 13.0 18.0 0.00 0.00 0.00 79 1015.4
20240229114414 45 261 11.0 18.0 0.00 0.00 0.00 78 1015.4
20240229113917 45 263 12.0 17.0 0.00 0.00 0.00 78 1015.4
20240229113420 45 267 11.0 20.0 0.00 0.00 0.00 78 1015.4
20240229112923 45 262 13.0 20.0 0.00 0.00 0.00 78 1015.4
20240229112426 45 258 14.0 19.0 0.00 0.00 0.00 79 1015.4
20240229111432 45 254 14.0 21.0 0.00 0.00 0.00 79 1015.3
20240229110935 45 255 15.0 20.0 0.00 0.00 0.00 79 1015.4
20240229110438 45 253 15.0 21.0 0.00 0.00 0.00 79 1015.4
20240229105941 45 254 17.0 21.0 0.00 0.00 0.00 80 1015.4
20240229105444 45 254 15.0 21.0 0.00 0.00 0.00 79 1015.3
20240229104947 45 255 15.0 21.0 0.00 0.00 0.00 77 1015.4
20240229104450 45 258 12.0 19.0 0.00 0.00 0.00 76 1015.4
20240229103953 45 263 12.0 19.0 0.00 0.00 0.00 75 1015.6
20240229103456 45 256 14.0 19.0 0.00 0.00 0.00 74 1015.6
20240229102959 46 255 13.0 20.0 0.00 0.00 0.00 73 1015.6
20240229102502 46 260 12.0 20.0 0.00 0.00 0.00 72 1015.6
20240229101546 47 254 11.0 17.0 0.00 0.00 0.00 68 1015.7
20240229101508 47 254 11.0 17.0 0.00 0.00 0.00 68 1015.7
20240229100514 47 260 9.0 15.0 0.00 0.00 0.00 65 1015.8
20240229100017 47 260 9.0 15.0 0.00 0.00 0.00 65 1015.9
20240229095523 47 267 9.0 12.0 0.00 0.00 0.00 65 1015.9
20240229095023 47 269 6.0 12.0 0.00 0.00 0.00 65 10.1
20240229094526 47 278 7.0 12.0 0.00 0.00 0.00 65 1015.9
20240229094029 47 284 8.0 13.0 0.00 0.00 0.00 65 1016.0
20240229093531 47 285 8.0 13.0 0.00 0.00 0.00 65 1016.0
20240229093035 47 284 7.0 13.0 0.00 0.00 0.00 64 1016.1
20240229092537 47 289 8.0 13.0 0.00 0.00 0.00 64 1016.1
20240229092040 47 290 7.0 12.0 0.00 0.00 0.00 64 1016.2
20240229091543 47 282 8.0 11.0 0.00 0.00 0.00 64 1016.3
20240229091047 47 280 8.0 11.0 0.00 0.00 0.00 64 1016.3
20240229090550 47 283 7.0 12.0 0.00 0.00 0.00 63 1016.3
20240229090053 47 280 8.0 12.0 0.00 0.00 0.00 63 1016.3
20240229085556 47 274 8.0 11.0 0.00 0.00 0.00 63 1016.4
20240229085059 47 268 8.0 11.0 0.00 0.00 0.00 64 1016.4
20240229084602 47 267 6.0 11.0 0.00 0.00 0.00 64 1016.5
20240229083608 47 253 8.0 12.0 0.00 0.00 0.00 64 1016.6
20240229083159 47 248 8.0 11.0 0.00 0.00 0.00 64 1016.6
20240229083111 47 248 8.0 11.0 0.00 0.00 0.00 64 1016.6
20240229082614 47 261 6.0 11.0 0.00 0.00 0.00 64 1016.7
20240229082117 47 259 7.0 11.0 0.00 0.00 0.00 64 1016.5
20240229081620 47 265 6.0 11.0 0.00 0.00 0.00 64 1016.5
20240229081123 47 266 7.0 11.0 0.00 0.00 0.00 65 1016.6
20240229080626 47 267 6.0 11.0 0.00 0.00 0.00 64 1016.6
20240229080129 47 257 8.0 12.0 0.00 0.00 0.00 64 1016.6
20240229075632 47 257 7.0 13.0 0.00 0.00 0.00 63 1016.5
20240229075135 47 257 10.0 13.0 0.00 0.00 0.00 63 1016.6
20240229074638 48 256 9.0 12.0 0.00 0.00 0.00 62 1016.5
20240229074141 48 260 7.0 13.0 0.00 0.00 0.00 61 1016.5
20240229073644 48 279 7.0 13.0 0.00 0.00 0.00 60 1016.6
20240229072650 48 264 7.0 12.0 0.00 0.00 0.00 61 1016.4
20240229072153 47 267 7.0 11.0 0.00 0.00 0.00 61 1016.6
20240229071656 47 267 6.0 11.0 0.00 0.00 0.00 61 1016.6
20240229071159 47 273 6.0 11.0 0.00 0.00 0.00 60 1016.4
20240229070702 47 268 5.0 11.0 0.00 0.00 0.00 60 1016.6
20240229070205 47 259 6.0 11.0 0.00 0.00 0.00 61 1016.5
20240229065708 47 260 7.0 11.0 0.00 0.00 0.00 62 1016.5